Dillon, Colorado
Current Conditions -  °F | °C
As of 5:57 AM on Friday 24 Oct 2014 (Local Time) from KCCU Reporting Station
Clear Clear  
Wind Chill: 35°   Ceiling: Unl
Heat Index: 41°   Visibility: 10mi
Dew Point: 10°   Wind: 10mph
Humidity: 29%   Direction: 210°SSW
Pressure: 30.59"   Gusts: NA
Location:  39.63°N, 106.04°W
Report Text: KCCU 241157Z AUTO 21009KT 10SM CLR 05/M12 A3059 RMK AO2
Loading
Personal Weather Stations






























Interactive Weather Map
Tropical Storm Tracking
New forecast layout! Learn more

10-Day Weather Forecast

Advertisements
Track Severe Weather on mobile